sensor_id;sensor_type;location;lat;lon;timestamp;P1;durP1;ratioP1;P2;durP2;ratioP2
81312;SDS011;70780;52.722;5.724;2023-06-24T01:31:39;5.05;;;2.78;;
81312;SDS011;70780;52.722;5.724;2023-06-24T01:34:16;4.85;;;2.80;;
81312;SDS011;70780;52.722;5.724;2023-06-24T01:36:55;3.45;;;2.72;;
81312;SDS011;70780;52.722;5.724;2023-06-24T01:39:33;3.92;;;2.67;;
81312;SDS011;70780;52.722;5.724;2023-06-24T01:42:07;3.05;;;2.60;;
81312;SDS011;70780;52.722;5.724;2023-06-24T01:44:38;4.05;;;2.50;;
81312;SDS011;70780;52.722;5.724;2023-06-24T01:47:13;4.18;;;2.83;;
81312;SDS011;70780;52.722;5.724;2023-06-24T01:49:47;3.13;;;2.47;;
81312;SDS011;70780;52.722;5.724;2023-06-24T01:52:20;3.33;;;2.30;;
81312;SDS011;70780;52.722;5.724;2023-06-24T01:54:51;4.90;;;3.67;;
81312;SDS011;70780;52.722;5.724;2023-06-24T01:59:54;3.45;;;2.50;;
81312;SDS011;70780;52.722;5.724;2023-06-24T02:02:28;3.35;;;2.25;;
81312;SDS011;70780;52.722;5.724;2023-06-24T02:04:57;2.95;;;2.45;;
81312;SDS011;70780;52.722;5.724;2023-06-24T02:07:28;3.40;;;2.65;;
81312;SDS011;70780;52.722;5.724;2023-06-24T02:09:59;3.03;;;2.50;;
81312;SDS011;70780;52.722;5.724;2023-06-24T02:12:29;4.07;;;2.47;;
81312;SDS011;70780;52.722;5.724;2023-06-24T02:14:59;4.15;;;2.70;;
81312;SDS011;70780;52.722;5.724;2023-06-24T02:17:33;3.63;;;2.90;;
81312;SDS011;70780;52.722;5.724;2023-06-24T02:20:03;3.72;;;2.92;;
81312;SDS011;70780;52.722;5.724;2023-06-24T02:22:36;3.17;;;2.63;;
81312;SDS011;70780;52.722;5.724;2023-06-24T02:25:08;3.53;;;2.80;;
81312;SDS011;70780;52.722;5.724;2023-06-24T02:27:38;4.78;;;2.60;;
81312;SDS011;70780;52.722;5.724;2023-06-24T02:30:09;3.28;;;2.45;;
81312;SDS011;70780;52.722;5.724;2023-06-24T02:32:42;3.67;;;3.28;;
81312;SDS011;70780;52.722;5.724;2023-06-24T02:35:12;2.58;;;2.17;;
81312;SDS011;70780;52.722;5.724;2023-06-24T02:37:41;4.85;;;3.20;;
81312;SDS011;70780;52.722;5.724;2023-06-24T02:40:11;3.13;;;2.63;;
81312;SDS011;70780;52.722;5.724;2023-06-24T02:42:41;4.13;;;3.15;;
81312;SDS011;70780;52.722;5.724;2023-06-24T02:45:11;3.63;;;2.83;;
81312;SDS011;70780;52.722;5.724;2023-06-24T02:47:43;4.18;;;2.58;;
81312;SDS011;70780;52.722;5.724;2023-06-24T02:50:15;4.05;;;2.85;;
81312;SDS011;70780;52.722;5.724;2023-06-24T02:52:47;3.97;;;2.70;;
81312;SDS011;70780;52.722;5.724;2023-06-24T02:55:19;4.65;;;3.10;;
81312;SDS011;70780;52.722;5.724;2023-06-24T02:57:53;4.13;;;2.83;;
81312;SDS011;70780;52.722;5.724;2023-06-24T03:00:42;4.43;;;2.78;;
81312;SDS011;70780;52.722;5.724;2023-06-24T03:03:33;4.65;;;3.00;;
81312;SDS011;70780;52.722;5.724;2023-06-24T03:06:07;3.42;;;2.60;;
81312;SDS011;70780;52.722;5.724;2023-06-24T03:08:38;4.38;;;3.00;;
81312;SDS011;70780;52.722;5.724;2023-06-24T03:11:11;3.92;;;2.92;;
81312;SDS011;70780;52.722;5.724;2023-06-24T03:13:42;4.25;;;2.92;;
81312;SDS011;70780;52.722;5.724;2023-06-24T03:16:15;4.53;;;2.88;;
81312;SDS011;70780;52.722;5.724;2023-06-24T03:19:23;3.88;;;2.40;;
81312;SDS011;70780;52.722;5.724;2023-06-24T03:21:52;3.50;;;2.67;;
81312;SDS011;70780;52.722;5.724;2023-06-24T03:24:21;3.33;;;3.03;;
81312;SDS011;70780;52.722;5.724;2023-06-24T03:26:52;3.67;;;3.05;;
81312;SDS011;70780;52.722;5.724;2023-06-24T03:29:26;3.33;;;2.72;;
81312;SDS011;70780;52.722;5.724;2023-06-24T03:32:09;3.22;;;2.58;;
81312;SDS011;70780;52.722;5.724;2023-06-24T03:34:41;4.18;;;3.30;;
81312;SDS011;70780;52.722;5.724;2023-06-24T03:37:11;3.97;;;2.65;;
81312;SDS011;70780;52.722;5.724;2023-06-24T03:39:41;4.28;;;3.00;;
81312;SDS011;70780;52.722;5.724;2023-06-24T03:42:11;4.68;;;2.80;;
81312;SDS011;70780;52.722;5.724;2023-06-24T03:44:40;3.35;;;2.42;;
81312;SDS011;70780;52.722;5.724;2023-06-24T03:47:09;3.50;;;2.70;;
81312;SDS011;70780;52.722;5.724;2023-06-24T03:49:41;3.33;;;2.50;;
81312;SDS011;70780;52.722;5.724;2023-06-24T03:52:11;4.05;;;2.78;;
81312;SDS011;70780;52.722;5.724;2023-06-24T03:54:40;3.65;;;3.05;;
81312;SDS011;70780;52.722;5.724;2023-06-24T03:57:09;4.63;;;2.78;;
81312;SDS011;70780;52.722;5.724;2023-06-24T03:59:38;4.20;;;2.95;;
81312;SDS011;70780;52.722;5.724;2023-06-24T04:02:08;3.55;;;2.88;;
81312;SDS011;70780;52.722;5.724;2023-06-24T10:01:47;4.82;;;2.25;;
81312;SDS011;70780;52.722;5.724;2023-06-24T10:04:18;8.18;;;3.80;;
81312;SDS011;70780;52.722;5.724;2023-06-24T10:06:49;7.10;;;3.53;;
81312;SDS011;70780;52.722;5.724;2023-06-24T10:09:19;6.57;;;4.10;;
81312;SDS011;70780;52.722;5.724;2023-06-24T10:11:48;7.35;;;4.20;;
81312;SDS011;70780;52.722;5.724;2023-06-24T10:14:17;6.10;;;4.03;;
81312;SDS011;70780;52.722;5.724;2023-06-24T10:16:49;6.07;;;4.18;;
81312;SDS011;70780;52.722;5.724;2023-06-24T10:19:19;6.03;;;4.10;;
81312;SDS011;70780;52.722;5.724;2023-06-24T10:21:50;7.25;;;4.32;;
81312;SDS011;70780;52.722;5.724;2023-06-24T10:24:30;7.22;;;4.45;;
81312;SDS011;70780;52.722;5.724;2023-06-24T10:27:01;5.78;;;3.75;;
81312;SDS011;70780;52.722;5.724;2023-06-24T10:29:31;6.25;;;3.88;;
81312;SDS011;70780;52.722;5.724;2023-06-24T10:32:07;5.90;;;3.95;;
81312;SDS011;70780;52.722;5.724;2023-06-24T10:34:41;5.60;;;3.25;;
81312;SDS011;70780;52.722;5.724;2023-06-24T10:37:11;6.20;;;3.90;;
81312;SDS011;70780;52.722;5.724;2023-06-24T10:39:46;6.05;;;3.83;;
81312;SDS011;70780;52.722;5.724;2023-06-24T10:45:16;6.50;;;3.40;;
81312;SDS011;70780;52.722;5.724;2023-06-24T10:47:50;6.45;;;3.80;;
81312;SDS011;70780;52.722;5.724;2023-06-24T10:50:22;5.50;;;3.85;;
81312;SDS011;70780;52.722;5.724;2023-06-24T10:52:52;5.80;;;3.17;;
81312;SDS011;70780;52.722;5.724;2023-06-24T10:55:23;7.25;;;3.40;;
81312;SDS011;70780;52.722;5.724;2023-06-24T10:57:53;5.68;;;3.00;;
81312;SDS011;70780;52.722;5.724;2023-06-24T11:00:22;7.07;;;3.80;;
81312;SDS011;70780;52.722;5.724;2023-06-24T11:02:54;6.18;;;3.90;;
81312;SDS011;70780;52.722;5.724;2023-06-24T11:05:24;5.82;;;3.40;;
81312;SDS011;70780;52.722;5.724;2023-06-24T11:07:53;7.07;;;3.53;;
81312;SDS011;70780;52.722;5.724;2023-06-24T11:10:25;5.18;;;3.47;;
81312;SDS011;70780;52.722;5.724;2023-06-24T11:12:54;5.95;;;3.70;;
81312;SDS011;70780;52.722;5.724;2023-06-24T11:15:24;5.88;;;3.67;;
81312;SDS011;70780;52.722;5.724;2023-06-24T11:17:56;5.57;;;3.25;;
81312;SDS011;70780;52.722;5.724;2023-06-24T11:20:25;4.80;;;3.53;;
81312;SDS011;70780;52.722;5.724;2023-06-24T11:22:55;5.05;;;3.63;;
81312;SDS011;70780;52.722;5.724;2023-06-24T11:25:24;7.32;;;3.63;;
81312;SDS011;70780;52.722;5.724;2023-06-24T11:27:53;5.35;;;3.42;;
81312;SDS011;70780;52.722;5.724;2023-06-24T11:30:23;5.35;;;3.13;;
81312;SDS011;70780;52.722;5.724;2023-06-24T11:32:53;5.20;;;3.80;;
81312;SDS011;70780;52.722;5.724;2023-06-24T11:35:24;5.40;;;3.45;;
81312;SDS011;70780;52.722;5.724;2023-06-24T11:37:57;5.75;;;3.95;;
81312;SDS011;70780;52.722;5.724;2023-06-24T11:40:27;4.68;;;3.58;;
81312;SDS011;70780;52.722;5.724;2023-06-24T11:42:59;7.18;;;3.78;;
81312;SDS011;70780;52.722;5.724;2023-06-24T11:45:29;6.22;;;4.30;;
81312;SDS011;70780;52.722;5.724;2023-06-24T12:22:51;5.80;;;3.38;;
81312;SDS011;70780;52.722;5.724;2023-06-24T12:25:21;7.78;;;3.88;;
81312;SDS011;70780;52.722;5.724;2023-06-24T12:27:50;6.90;;;3.92;;
81312;SDS011;70780;52.722;5.724;2023-06-24T12:30:20;6.93;;;4.43;;
81312;SDS011;70780;52.722;5.724;2023-06-24T12:32:49;6.53;;;3.90;;
81312;SDS011;70780;52.722;5.724;2023-06-24T12:35:19;5.53;;;4.13;;
81312;SDS011;70780;52.722;5.724;2023-06-24T12:37:53;5.55;;;3.78;;
81312;SDS011;70780;52.722;5.724;2023-06-24T12:40:23;6.07;;;3.63;;
81312;SDS011;70780;52.722;5.724;2023-06-24T12:42:52;6.03;;;3.65;;
81312;SDS011;70780;52.722;5.724;2023-06-24T12:45:23;6.60;;;3.90;;
81312;SDS011;70780;52.722;5.724;2023-06-24T12:47:52;9.32;;;4.03;;
81312;SDS011;70780;52.722;5.724;2023-06-24T12:50:21;5.47;;;4.18;;
81312;SDS011;70780;52.722;5.724;2023-06-24T12:52:53;7.13;;;4.00;;
81312;SDS011;70780;52.722;5.724;2023-06-24T12:55:23;6.57;;;3.95;;
81312;SDS011;70780;52.722;5.724;2023-06-24T12:57:52;7.10;;;3.75;;
81312;SDS011;70780;52.722;5.724;2023-06-24T13:00:21;7.15;;;4.03;;
81312;SDS011;70780;52.722;5.724;2023-06-24T13:02:51;7.32;;;4.30;;
81312;SDS011;70780;52.722;5.724;2023-06-24T13:05:20;6.15;;;4.55;;
81312;SDS011;70780;52.722;5.724;2023-06-24T13:07:50;7.75;;;4.47;;
81312;SDS011;70780;52.722;5.724;2023-06-24T13:10:22;8.38;;;4.57;;
81312;SDS011;70780;52.722;5.724;2023-06-24T13:15:21;7.13;;;4.50;;
81312;SDS011;70780;52.722;5.724;2023-06-24T13:17:52;7.25;;;4.38;;
81312;SDS011;70780;52.722;5.724;2023-06-24T13:20:22;6.65;;;3.63;;
81312;SDS011;70780;52.722;5.724;2023-06-24T13:22:51;6.57;;;4.53;;
81312;SDS011;70780;52.722;5.724;2023-06-24T13:25:23;8.68;;;3.88;;
81312;SDS011;70780;52.722;5.724;2023-06-24T13:27:52;8.80;;;4.60;;
81312;SDS011;70780;52.722;5.724;2023-06-24T13:30:21;5.63;;;3.92;;
81312;SDS011;70780;52.722;5.724;2023-06-24T13:32:51;5.38;;;3.60;;
81312;SDS011;70780;52.722;5.724;2023-06-24T13:35:20;5.35;;;3.75;;
81312;SDS011;70780;52.722;5.724;2023-06-24T13:37:49;6.28;;;4.07;;
81312;SDS011;70780;52.722;5.724;2023-06-24T13:40:18;5.95;;;3.67;;
81312;SDS011;70780;52.722;5.724;2023-06-24T13:42:50;7.07;;;3.72;;
81312;SDS011;70780;52.722;5.724;2023-06-24T13:45:20;6.90;;;3.88;;
81312;SDS011;70780;52.722;5.724;2023-06-24T13:47:49;6.20;;;3.75;;
81312;SDS011;70780;52.722;5.724;2023-06-24T13:50:18;6.10;;;4.05;;
81312;SDS011;70780;52.722;5.724;2023-06-24T13:52:47;5.57;;;3.83;;
81312;SDS011;70780;52.722;5.724;2023-06-24T13:55:17;5.43;;;3.72;;
81312;SDS011;70780;52.722;5.724;2023-06-24T13:57:46;5.20;;;3.35;;
81312;SDS011;70780;52.722;5.724;2023-06-24T14:00:18;6.25;;;3.13;;
81312;SDS011;70780;52.722;5.724;2023-06-24T14:02:48;5.50;;;3.25;;
81312;SDS011;70780;52.722;5.724;2023-06-24T14:05:17;5.20;;;3.25;;
81312;SDS011;70780;52.722;5.724;2023-06-24T14:07:47;6.40;;;4.07;;
81312;SDS011;70780;52.722;5.724;2023-06-24T14:10:16;7.10;;;3.90;;
81312;SDS011;70780;52.722;5.724;2023-06-24T14:12:46;5.70;;;3.70;;
81312;SDS011;70780;52.722;5.724;2023-06-24T14:15:17;5.53;;;3.58;;
81312;SDS011;70780;52.722;5.724;2023-06-24T14:17:47;5.47;;;3.15;;
81312;SDS011;70780;52.722;5.724;2023-06-24T14:20:16;6.07;;;3.67;;
81312;SDS011;70780;52.722;5.724;2023-06-24T14:22:45;7.13;;;4.22;;
81312;SDS011;70780;52.722;5.724;2023-06-24T14:25:15;6.55;;;4.07;;
81312;SDS011;70780;52.722;5.724;2023-06-24T14:27:44;7.72;;;4.53;;
81312;SDS011;70780;52.722;5.724;2023-06-24T14:30:14;6.40;;;4.03;;
81312;SDS011;70780;52.722;5.724;2023-06-24T14:32:46;5.47;;;4.07;;
81312;SDS011;70780;52.722;5.724;2023-06-24T14:35:15;6.43;;;3.42;;
81312;SDS011;70780;52.722;5.724;2023-06-24T14:37:44;5.57;;;3.10;;
81312;SDS011;70780;52.722;5.724;2023-06-24T14:40:14;7.38;;;4.18;;
81312;SDS011;70780;52.722;5.724;2023-06-24T16:13:43;5.30;;;3.30;;
81312;SDS011;70780;52.722;5.724;2023-06-24T16:16:13;4.18;;;2.97;;
81312;SDS011;70780;52.722;5.724;2023-06-24T16:18:42;4.90;;;3.28;;
81312;SDS011;70780;52.722;5.724;2023-06-24T16:21:12;5.22;;;2.97;;
81312;SDS011;70780;52.722;5.724;2023-06-24T16:23:41;4.88;;;3.22;;
81312;SDS011;70780;52.722;5.724;2023-06-24T16:26:10;4.00;;;3.15;;
81312;SDS011;70780;52.722;5.724;2023-06-24T16:28:40;5.43;;;2.70;;
81312;SDS011;70780;52.722;5.724;2023-06-24T16:31:11;3.85;;;2.90;;
81312;SDS011;70780;52.722;5.724;2023-06-24T16:33:41;6.03;;;3.10;;
81312;SDS011;70780;52.722;5.724;2023-06-24T16:36:10;8.05;;;3.20;;
81312;SDS011;70780;52.722;5.724;2023-06-24T16:38:40;4.97;;;2.72;;
81312;SDS011;70780;52.722;5.724;2023-06-24T16:41:09;3.92;;;2.63;;
81312;SDS011;70780;52.722;5.724;2023-06-24T16:43:39;4.50;;;2.95;;
81312;SDS011;70780;52.722;5.724;2023-06-24T16:46:08;5.20;;;3.10;;
81312;SDS011;70780;52.722;5.724;2023-06-24T16:48:40;5.43;;;3.35;;
81312;SDS011;70780;52.722;5.724;2023-06-24T16:51:09;4.70;;;3.13;;
81312;SDS011;70780;52.722;5.724;2023-06-24T16:53:38;5.05;;;3.60;;
81312;SDS011;70780;52.722;5.724;2023-06-24T16:56:08;3.53;;;2.92;;
81312;SDS011;70780;52.722;5.724;2023-06-24T16:58:37;4.38;;;2.83;;
81312;SDS011;70780;52.722;5.724;2023-06-24T17:01:06;3.05;;;2.75;;
81312;SDS011;70780;52.722;5.724;2023-06-24T17:03:35;5.40;;;3.20;;
81312;SDS011;70780;52.722;5.724;2023-06-24T17:06:07;4.63;;;3.15;;
81312;SDS011;70780;52.722;5.724;2023-06-24T17:08:37;4.82;;;2.72;;
81312;SDS011;70780;52.722;5.724;2023-06-24T17:11:06;5.70;;;2.80;;
81312;SDS011;70780;52.722;5.724;2023-06-24T17:13:36;3.53;;;2.63;;
81312;SDS011;70780;52.722;5.724;2023-06-24T17:16:05;4.55;;;3.03;;
81312;SDS011;70780;52.722;5.724;2023-06-24T17:18:34;3.60;;;2.72;;
81312;SDS011;70780;52.722;5.724;2023-06-24T17:21:03;4.88;;;2.95;;
81312;SDS011;70780;52.722;5.724;2023-06-24T17:23:35;5.00;;;3.20;;
81312;SDS011;70780;52.722;5.724;2023-06-24T17:26:06;3.65;;;3.03;;
81312;SDS011;70780;52.722;5.724;2023-06-24T17:28:35;4.22;;;2.95;;
81312;SDS011;70780;52.722;5.724;2023-06-24T17:31:06;4.25;;;3.25;;
81312;SDS011;70780;52.722;5.724;2023-06-24T17:33:35;4.20;;;2.90;;
81312;SDS011;70780;52.722;5.724;2023-06-24T17:36:04;5.75;;;3.33;;
81312;SDS011;70780;52.722;5.724;2023-06-24T17:38:36;4.88;;;3.15;;
81312;SDS011;70780;52.722;5.724;2023-06-24T17:41:06;3.42;;;2.70;;
81312;SDS011;70780;52.722;5.724;2023-06-24T17:43:36;6.10;;;3.72;;
81312;SDS011;70780;52.722;5.724;2023-06-24T17:46:07;7.80;;;3.60;;
81312;SDS011;70780;52.722;5.724;2023-06-24T17:48:36;5.28;;;3.28;;
81312;SDS011;70780;52.722;5.724;2023-06-24T17:51:05;3.78;;;2.90;;
81312;SDS011;70780;52.722;5.724;2023-06-24T17:53:38;5.18;;;3.60;;
81312;SDS011;70780;52.722;5.724;2023-06-24T17:56:07;3.90;;;3.03;;
81312;SDS011;70780;52.722;5.724;2023-06-24T17:58:36;4.38;;;3.17;;
81312;SDS011;70780;52.722;5.724;2023-06-24T18:01:06;5.22;;;2.53;;
81312;SDS011;70780;52.722;5.724;2023-06-24T18:03:40;4.82;;;2.92;;
81312;SDS011;70780;52.722;5.724;2023-06-24T18:06:10;5.13;;;3.03;;
81312;SDS011;70780;52.722;5.724;2023-06-24T18:08:42;4.50;;;2.78;;
81312;SDS011;70780;52.722;5.724;2023-06-24T18:11:11;3.90;;;2.65;;
81312;SDS011;70780;52.722;5.724;2023-06-24T18:13:40;5.40;;;2.70;;
81312;SDS011;70780;52.722;5.724;2023-06-24T18:16:10;4.18;;;2.65;;
81312;SDS011;70780;52.722;5.724;2023-06-24T18:18:39;3.55;;;2.53;;
81312;SDS011;70780;52.722;5.724;2023-06-24T18:21:08;5.75;;;3.00;;
81312;SDS011;70780;52.722;5.724;2023-06-24T18:23:43;4.28;;;2.55;;
81312;SDS011;70780;52.722;5.724;2023-06-24T18:26:12;3.78;;;2.85;;
81312;SDS011;70780;52.722;5.724;2023-06-24T18:28:42;3.65;;;2.65;;
81312;SDS011;70780;52.722;5.724;2023-06-24T18:31:11;6.32;;;3.13;;
81312;SDS011;70780;52.722;5.724;2023-06-24T18:33:40;3.75;;;2.35;;
81312;SDS011;70780;52.722;5.724;2023-06-24T18:36:09;4.07;;;2.67;;
81312;SDS011;70780;52.722;5.724;2023-06-24T18:38:39;3.70;;;2.83;;
81312;SDS011;70780;52.722;5.724;2023-06-24T18:41:11;3.88;;;2.60;;
81312;SDS011;70780;52.722;5.724;2023-06-24T18:43:40;3.78;;;2.80;;
81312;SDS011;70780;52.722;5.724;2023-06-24T18:46:09;3.15;;;2.63;;
81312;SDS011;70780;52.722;5.724;2023-06-24T23:57:47;3.55;;;2.88;;
